createdAt,value
2022-12-04T00:02:01.001Z,13.05
2022-12-04T00:04:29.553Z,13.02
2022-12-04T00:06:59.282Z,12.48
2022-12-04T00:09:27.835Z,16.30
2022-12-04T00:11:56.338Z,13.88
2022-12-04T00:14:24.889Z,10.82
2022-12-04T00:16:53.530Z,10.13
2022-12-04T00:19:22.060Z,13.45
2022-12-04T00:21:51.495Z,10.82
2022-12-04T00:24:21.034Z,18.85
2022-12-04T00:26:49.593Z,11.93
2022-12-04T00:29:18.097Z,12.75
2022-12-04T00:31:46.636Z,13.30
2022-12-04T00:34:15.293Z,12.85
2022-12-04T00:36:43.850Z,12.57
2022-12-04T00:39:12.338Z,14.80
2022-12-04T00:41:41.916Z,12.52
2022-12-04T00:44:10.463Z,14.48
2022-12-04T00:46:38.937Z,9.57
2022-12-04T00:49:07.451Z,11.85
2022-12-04T00:51:35.732Z,11.40
2022-12-04T00:54:04.247Z,13.15
2022-12-04T00:56:32.763Z,12.63
2022-12-04T00:59:02.787Z,10.75
2022-12-04T01:01:31.781Z,13.15
2022-12-04T01:04:00.476Z,14.38
2022-12-04T01:06:31.555Z,12.48
2022-12-04T01:09:01.752Z,14.32
2022-12-04T01:11:31.031Z,15.57
2022-12-04T01:14:01.278Z,16.98
2022-12-04T01:16:32.579Z,14.40
2022-12-04T01:19:01.479Z,13.15
2022-12-04T01:21:29.817Z,15.13
2022-12-04T01:23:58.996Z,11.40
2022-12-04T01:26:27.667Z,10.88
2022-12-04T01:28:56.296Z,12.05
2022-12-04T01:31:27.852Z,12.15
2022-12-04T01:33:56.804Z,11.35
2022-12-04T01:36:28.859Z,13.05
2022-12-04T01:38:57.838Z,13.07
2022-12-04T01:41:28.858Z,10.60
2022-12-04T01:44:13.865Z,11.40
2022-12-04T01:46:45.301Z,13.50
2022-12-04T01:49:19.949Z,12.75
2022-12-04T01:51:52.728Z,12.73
2022-12-04T01:54:28.327Z,12.93
2022-12-04T01:57:02.508Z,12.95
2022-12-04T01:59:36.344Z,13.55
2022-12-04T02:02:10.015Z,11.45
2022-12-04T02:04:40.395Z,14.43
2022-12-04T02:07:09.117Z,14.07
2022-12-04T02:09:40.364Z,13.85
2022-12-04T02:12:21.481Z,11.73
2022-12-04T02:15:04.947Z,14.23
2022-12-04T02:17:42.457Z,13.68
2022-12-04T02:20:30.798Z,13.88
2022-12-04T02:23:30.440Z,15.68
2022-12-04T02:26:15.549Z,13.10
2022-12-04T02:28:54.050Z,11.57
2022-12-04T02:31:29.492Z,14.15
2022-12-04T02:34:05.481Z,11.90
2022-12-04T02:36:43.975Z,12.38
2022-12-04T02:39:20.383Z,17.15
2022-12-04T02:41:56.752Z,17.88
2022-12-04T02:44:31.775Z,15.18
2022-12-04T02:47:05.625Z,13.82
2022-12-04T02:49:39.016Z,14.60
2022-12-04T02:52:12.970Z,12.20
2022-12-04T02:54:46.772Z,15.68
2022-12-04T02:57:22.294Z,11.20
2022-12-04T02:59:54.718Z,11.23
2022-12-04T03:02:30.473Z,11.98
2022-12-04T03:05:04.209Z,15.38
2022-12-04T03:07:41.030Z,11.57
2022-12-04T03:10:16.375Z,11.57
2022-12-04T03:12:51.867Z,17.05
2022-12-04T03:15:27.839Z,13.50
2022-12-04T03:18:04.179Z,16.52
2022-12-04T03:20:35.816Z,12.50
2022-12-04T03:23:11.067Z,10.40
2022-12-04T03:25:55.216Z,11.30
2022-12-04T03:28:33.748Z,17.10
2022-12-04T03:31:09.114Z,14.13
2022-12-04T03:33:43.142Z,13.73
2022-12-04T03:36:20.389Z,11.55
2022-12-04T03:38:56.090Z,13.65
2022-12-04T03:41:30.434Z,17.48
2022-12-04T03:44:07.600Z,11.93
2022-12-04T03:46:42.185Z,12.15
2022-12-04T03:51:49.896Z,13.60
2022-12-04T03:54:23.548Z,15.90
2022-12-04T03:56:59.832Z,18.37
2022-12-04T03:59:36.534Z,15.10
2022-12-04T04:02:09.580Z,16.77
2022-12-04T04:04:40.750Z,13.70
2022-12-04T04:07:16.754Z,14.57
2022-12-04T04:09:50.498Z,16.13
2022-12-04T04:12:24.332Z,12.77
2022-12-04T04:15:15.632Z,14.25
2022-12-04T04:18:05.656Z,14.98
2022-12-04T04:20:59.251Z,13.15
2022-12-04T04:23:49.787Z,13.43
2022-12-04T04:26:19.323Z,14.13
2022-12-04T04:28:47.731Z,18.77
2022-12-04T04:31:31.784Z,16.77
2022-12-04T04:34:10.361Z,15.32
2022-12-04T04:36:51.102Z,14.35
2022-12-04T04:39:28.507Z,16.15
2022-12-04T04:42:04.412Z,12.93
2022-12-04T04:44:41.037Z,15.10
2022-12-04T04:47:17.530Z,18.23
2022-12-04T04:49:48.479Z,12.20
2022-12-04T04:52:19.571Z,19.58
2022-12-04T04:54:48.796Z,13.43
2022-12-04T04:57:28.848Z,11.82
2022-12-04T04:59:57.704Z,17.83
2022-12-04T05:02:27.858Z,18.52
2022-12-04T05:04:57.627Z,16.90
2022-12-04T05:07:26.110Z,17.42
2022-12-04T05:09:54.890Z,14.63
2022-12-04T05:12:23.688Z,12.05
2022-12-04T05:14:52.015Z,17.00
2022-12-04T05:17:20.525Z,16.77
2022-12-04T05:19:54.171Z,15.98
2022-12-04T05:22:27.176Z,18.27
2022-12-04T05:24:55.886Z,13.02
2022-12-04T05:27:26.771Z,10.65
2022-12-04T05:29:56.025Z,13.40
2022-12-04T05:32:28.175Z,12.30
2022-12-04T05:34:58.114Z,19.73
2022-12-04T05:37:28.174Z,15.00
2022-12-04T05:39:56.921Z,17.15
2022-12-04T05:42:25.314Z,14.20
2022-12-04T05:44:53.803Z,16.42
2022-12-04T05:47:22.303Z,15.52
2022-12-04T05:49:51.018Z,16.52
2022-12-04T05:52:19.522Z,15.35
2022-12-04T05:54:49.102Z,20.77
2022-12-04T05:57:18.737Z,14.73
2022-12-04T05:59:46.910Z,15.70
2022-12-04T06:02:15.433Z,15.48
2022-12-04T06:04:44.011Z,21.55
2022-12-04T06:07:12.884Z,16.30
2022-12-04T06:09:41.927Z,13.45
2022-12-04T06:12:11.550Z,17.33
2022-12-04T06:14:40.214Z,14.70
2022-12-04T06:17:08.982Z,19.75
2022-12-04T06:19:37.532Z,17.20
2022-12-04T06:22:06.143Z,15.88
2022-12-04T06:24:34.716Z,19.40
2022-12-04T06:29:52.902Z,11.65
2022-12-04T06:32:22.310Z,13.13
2022-12-04T06:34:53.419Z,13.02
2022-12-04T06:37:22.530Z,16.48
2022-12-04T06:39:51.331Z,18.63
2022-12-04T06:42:19.902Z,15.65
2022-12-04T06:44:48.353Z,12.00
2022-12-04T06:47:17.947Z,17.27
2022-12-04T06:49:49.680Z,20.08
2022-12-04T06:52:18.533Z,13.25
2022-12-04T06:54:46.727Z,13.30
2022-12-04T06:57:15.411Z,17.05
2022-12-04T06:59:43.897Z,18.17
2022-12-04T07:02:12.801Z,18.35
2022-12-04T07:04:42.418Z,16.42
2022-12-04T07:07:11.183Z,16.80
2022-12-04T07:09:40.044Z,19.67
2022-12-04T07:12:09.074Z,16.45
2022-12-04T07:14:37.595Z,12.60
2022-12-04T07:17:06.229Z,15.02
2022-12-04T07:19:34.812Z,14.13
2022-12-04T07:22:04.463Z,14.10
2022-12-04T07:24:32.714Z,11.80
2022-12-04T07:27:00.938Z,15.27
2022-12-04T07:29:29.437Z,12.93
2022-12-04T07:31:58.034Z,12.32
2022-12-04T07:34:26.665Z,18.33
2022-12-04T07:36:55.188Z,15.20
2022-12-04T07:39:25.026Z,14.90
2022-12-04T07:41:53.523Z,13.27
2022-12-04T07:44:22.047Z,17.10
2022-12-04T07:46:50.554Z,13.25
2022-12-04T07:49:19.072Z,17.48
2022-12-04T07:51:47.543Z,18.25
2022-12-04T07:54:15.722Z,18.77
2022-12-04T07:56:45.316Z,14.18
2022-12-04T07:59:13.816Z,11.98
2022-12-04T08:01:42.044Z,17.75
2022-12-04T08:04:12.780Z,14.10
2022-12-04T08:06:41.840Z,17.88
2022-12-04T08:09:10.605Z,13.50
2022-12-04T08:11:39.726Z,16.92
2022-12-04T08:14:13.420Z,17.00
2022-12-04T08:16:41.724Z,14.97
2022-12-04T08:19:09.916Z,11.20
2022-12-04T08:21:38.476Z,16.02
2022-12-04T08:24:07.506Z,17.83
2022-12-04T08:26:36.100Z,21.30
2022-12-04T08:29:06.875Z,22.33
2022-12-04T08:31:37.589Z,20.52
2022-12-04T08:34:08.376Z,20.05
2022-12-04T08:36:37.040Z,20.55
2022-12-04T08:39:06.111Z,23.08
2022-12-04T08:41:34.710Z,20.13
2022-12-04T08:44:03.259Z,20.67
2022-12-04T08:46:31.768Z,24.02
2022-12-04T08:49:01.427Z,18.52
2022-12-04T08:51:31.644Z,18.75
2022-12-04T08:54:04.939Z,26.98
2022-12-04T08:56:34.935Z,27.98
2022-12-04T08:59:04.120Z,25.15
2022-12-04T09:01:32.806Z,37.65
2022-12-04T09:04:02.549Z,31.48
2022-12-04T09:06:31.135Z,27.40
2022-12-04T09:08:59.403Z,23.08
2022-12-04T09:11:30.771Z,33.47
2022-12-04T09:13:59.415Z,32.40
2022-12-04T09:16:27.969Z,23.10
2022-12-04T09:18:57.430Z,18.42
2022-12-04T09:21:27.341Z,19.85
2022-12-04T09:23:55.883Z,27.38
2022-12-04T09:26:27.114Z,25.90
2022-12-04T09:28:57.076Z,19.48
2022-12-04T09:31:26.007Z,26.20
2022-12-04T09:33:54.806Z,21.65
2022-12-04T09:36:24.250Z,26.33
2022-12-04T09:38:55.577Z,34.38
2022-12-04T09:41:54.182Z,30.17
2022-12-04T09:44:28.988Z,23.33
2022-12-04T09:47:03.121Z,23.35
2022-12-04T09:49:38.029Z,21.17
2022-12-04T09:52:21.955Z,22.33
2022-12-04T09:54:53.968Z,26.80
2022-12-04T09:57:32.672Z,29.67
2022-12-04T10:00:05.537Z,26.90
2022-12-04T10:02:42.315Z,27.35
2022-12-04T10:05:21.546Z,24.08
2022-12-04T10:08:00.601Z,35.50
2022-12-04T10:10:39.891Z,23.90
2022-12-04T10:13:32.716Z,23.63
2022-12-04T10:16:09.060Z,22.15
2022-12-04T10:18:51.351Z,27.17
2022-12-04T10:21:42.721Z,24.77
2022-12-04T10:24:29.244Z,20.35
2022-12-04T10:27:02.694Z,20.50
2022-12-04T10:29:35.528Z,22.45
2022-12-04T10:32:17.027Z,19.48
2022-12-04T10:34:46.565Z,27.15
2022-12-04T10:37:16.438Z,23.95
2022-12-04T10:39:53.154Z,23.10
2022-12-04T10:42:32.128Z,16.38
2022-12-04T10:45:00.669Z,20.70
2022-12-04T10:47:29.338Z,25.23
2022-12-04T10:50:01.691Z,25.50
2022-12-04T10:52:30.315Z,20.77
2022-12-04T10:55:01.299Z,27.75
2022-12-04T10:57:43.002Z,21.10
2022-12-04T11:00:30.615Z,27.25
2022-12-04T11:03:02.668Z,18.02
2022-12-04T11:05:35.780Z,23.70
2022-12-04T11:08:07.550Z,19.52
2022-12-04T11:10:38.616Z,26.13
2022-12-04T11:13:16.967Z,25.52
2022-12-04T11:15:47.723Z,30.15
2022-12-04T11:18:21.052Z,21.80
2022-12-04T11:20:55.389Z,26.40
2022-12-04T11:23:24.241Z,21.00
2022-12-04T11:25:58.228Z,18.52
2022-12-04T11:28:42.550Z,27.27
2022-12-04T11:31:18.330Z,22.88
2022-12-04T11:33:50.900Z,23.77
2022-12-04T11:36:24.461Z,28.80
2022-12-04T11:38:54.368Z,23.17
2022-12-04T11:41:28.293Z,24.05
2022-12-04T11:44:00.548Z,25.88
2022-12-04T11:46:31.661Z,25.77
2022-12-04T11:49:02.901Z,26.02
2022-12-04T11:51:48.323Z,23.23
2022-12-04T11:54:27.594Z,19.75
2022-12-04T11:57:11.879Z,28.48
2022-12-04T11:59:56.775Z,28.05
2022-12-04T12:02:52.244Z,23.40
2022-12-04T12:05:53.623Z,26.63
2022-12-04T12:08:37.767Z,24.13
2022-12-04T12:11:17.263Z,23.00
2022-12-04T12:13:58.793Z,26.17
2022-12-04T12:16:40.910Z,33.85
2022-12-04T12:19:33.426Z,27.55
2022-12-04T12:22:12.512Z,27.67
2022-12-04T12:24:52.819Z,21.23
2022-12-04T12:27:43.970Z,30.77
2022-12-04T12:30:18.387Z,30.83
2022-12-04T12:33:05.907Z,26.27
2022-12-04T12:35:40.075Z,28.05
2022-12-04T12:38:14.974Z,24.38
2022-12-04T12:40:47.439Z,25.08
2022-12-04T12:43:22.911Z,44.70
2022-12-04T12:45:56.399Z,27.13
2022-12-04T12:48:31.391Z,32.97
2022-12-04T12:51:28.982Z,27.67
2022-12-04T12:54:01.232Z,27.88
2022-12-04T12:56:38.275Z,28.75
2022-12-04T12:59:13.598Z,29.42
2022-12-04T13:01:49.197Z,29.00
2022-12-04T13:04:26.277Z,37.80
2022-12-04T13:07:11.759Z,26.42
2022-12-04T13:09:47.343Z,31.58
2022-12-04T13:12:19.246Z,22.83
2022-12-04T13:14:49.285Z,33.13
2022-12-04T13:17:22.479Z,35.17
2022-12-04T13:19:56.014Z,31.55
2022-12-04T13:22:36.276Z,25.75
2022-12-04T13:25:42.876Z,28.58
2022-12-04T13:28:29.570Z,28.25
2022-12-04T13:31:11.434Z,29.80
2022-12-04T13:34:15.800Z,37.30
2022-12-04T13:37:16.079Z,31.63
2022-12-04T13:40:28.971Z,23.08
2022-12-04T13:43:18.721Z,32.13
2022-12-04T13:45:48.285Z,37.65
2022-12-04T13:48:30.456Z,33.17
2022-12-04T13:51:06.476Z,29.08
2022-12-04T13:53:40.301Z,27.50
2022-12-04T13:56:24.702Z,33.63
2022-12-04T13:59:02.573Z,29.67
2022-12-04T14:01:38.992Z,26.20
2022-12-04T14:04:08.117Z,26.48
2022-12-04T14:06:40.213Z,31.02
2022-12-04T14:09:23.439Z,25.98
2022-12-04T14:11:57.689Z,43.88
2022-12-04T14:14:30.230Z,26.50
2022-12-04T14:17:00.674Z,31.77
2022-12-04T14:19:34.933Z,37.85
2022-12-04T14:22:03.776Z,34.95
2022-12-04T14:24:39.058Z,30.77
2022-12-04T14:27:34.671Z,34.97
2022-12-04T14:30:05.088Z,33.30
2022-12-04T14:32:36.560Z,30.80
2022-12-04T14:35:05.915Z,31.00
2022-12-04T14:37:40.777Z,29.05
2022-12-04T14:40:21.709Z,34.38
2022-12-04T14:42:51.173Z,32.88
2022-12-04T14:45:30.124Z,28.15
2022-12-04T14:48:27.462Z,33.45
2022-12-04T14:51:05.705Z,36.47
2022-12-04T14:53:42.690Z,26.10
2022-12-04T14:56:45.633Z,36.35
2022-12-04T14:59:19.275Z,33.72
2022-12-04T15:01:50.315Z,29.67
2022-12-04T15:04:26.182Z,27.63
2022-12-04T15:07:00.138Z,29.88
2022-12-04T15:09:47.587Z,32.75
2022-12-04T15:12:36.402Z,26.13
2022-12-04T15:15:15.252Z,26.80
2022-12-04T15:17:43.841Z,30.05
2022-12-04T15:20:19.815Z,29.05
2022-12-04T15:22:48.967Z,29.02
2022-12-04T15:25:25.214Z,24.77
2022-12-04T15:28:03.861Z,30.02
2022-12-04T15:30:35.153Z,29.73
2022-12-04T15:33:03.885Z,32.22
2022-12-04T15:35:34.900Z,30.98
2022-12-04T15:38:04.061Z,38.53
2022-12-04T15:40:32.307Z,35.42
2022-12-04T15:43:18.539Z,30.83
2022-12-04T15:45:47.444Z,27.05
2022-12-04T15:48:26.433Z,26.38
2022-12-04T15:51:01.750Z,38.13
2022-12-04T15:53:33.896Z,30.98
2022-12-04T15:56:05.471Z,32.55
2022-12-04T15:58:37.519Z,32.53
2022-12-04T16:01:08.640Z,30.17
2022-12-04T16:03:47.651Z,30.60
2022-12-04T16:06:21.103Z,27.20
2022-12-04T16:08:52.737Z,33.17
2022-12-04T16:11:31.501Z,31.63
2022-12-04T16:14:22.470Z,32.05
2022-12-04T16:16:53.364Z,25.85
2022-12-04T16:19:32.548Z,32.92
2022-12-04T16:22:01.936Z,34.45
2022-12-04T16:24:30.639Z,36.08
2022-12-04T16:27:01.344Z,29.40
2022-12-04T16:29:31.437Z,27.77
2022-12-04T16:32:03.437Z,34.97
2022-12-04T16:34:32.914Z,32.28
2022-12-04T16:37:02.093Z,35.17
2022-12-04T16:39:30.646Z,34.53
2022-12-04T16:41:59.454Z,29.08
2022-12-04T16:44:27.675Z,31.05
2022-12-04T16:46:57.309Z,28.23
2022-12-04T16:49:25.926Z,31.80
2022-12-04T16:51:54.408Z,30.90
2022-12-04T16:54:22.632Z,24.40
2022-12-04T16:56:51.138Z,40.47
2022-12-04T16:59:19.665Z,35.42
2022-12-04T17:01:49.890Z,32.35
2022-12-04T17:04:20.427Z,27.70
2022-12-04T17:06:49.140Z,31.98
2022-12-04T17:09:17.705Z,25.98
2022-12-04T17:11:46.593Z,33.17
2022-12-04T17:14:15.118Z,27.77
2022-12-04T17:16:46.956Z,28.70
2022-12-04T17:19:15.561Z,34.85
2022-12-04T17:21:46.125Z,34.53
2022-12-04T17:24:14.417Z,30.00
2022-12-04T17:26:42.895Z,40.42
2022-12-04T17:29:11.505Z,27.20
2022-12-04T17:31:40.097Z,33.28
2022-12-04T17:34:08.713Z,34.95
2022-12-04T17:36:36.921Z,33.10
2022-12-04T17:39:07.985Z,29.90
2022-12-04T17:41:36.535Z,30.83
2022-12-04T17:44:04.918Z,29.92
2022-12-04T17:46:33.567Z,33.20
2022-12-04T17:49:06.801Z,28.80
2022-12-04T17:51:36.052Z,31.43
2022-12-04T17:54:06.467Z,27.95
2022-12-04T17:56:35.511Z,44.80
2022-12-04T17:59:04.588Z,30.83
2022-12-04T18:01:33.636Z,37.45
2022-12-04T18:04:04.498Z,29.80
2022-12-04T18:06:34.869Z,30.35
2022-12-04T18:09:04.039Z,31.27
2022-12-04T18:11:36.401Z,29.08
2022-12-04T18:14:12.346Z,27.48
2022-12-04T18:16:44.640Z,36.83
2022-12-04T18:19:14.945Z,27.58
2022-12-04T18:21:43.671Z,24.55
2022-12-04T18:24:12.584Z,28.75
2022-12-04T18:26:45.571Z,26.13
2022-12-04T18:29:17.666Z,28.05
2022-12-04T18:31:46.625Z,31.92
2022-12-04T18:34:15.891Z,29.02
2022-12-04T18:36:45.308Z,26.45
2022-12-04T18:39:16.817Z,41.88
2022-12-04T18:41:46.879Z,35.80
2022-12-04T18:44:15.459Z,31.27
2022-12-04T18:46:44.339Z,33.35
2022-12-04T18:49:13.127Z,36.25
2022-12-04T18:51:48.859Z,35.38
2022-12-04T18:54:21.671Z,29.13
2022-12-04T18:56:52.265Z,30.23
2022-12-04T18:59:22.827Z,25.70
2022-12-04T19:01:51.609Z,29.67
2022-12-04T19:04:22.019Z,31.30
2022-12-04T19:06:53.437Z,30.98
2022-12-04T19:09:40.774Z,36.25
2022-12-04T19:12:14.294Z,29.15
2022-12-04T19:14:42.791Z,26.60
2022-12-04T19:17:11.652Z,30.77
2022-12-04T19:19:40.198Z,28.90
2022-12-04T19:22:08.407Z,26.75
2022-12-04T19:24:36.928Z,27.90
2022-12-04T19:27:11.001Z,35.92
2022-12-04T19:29:42.797Z,32.22
2022-12-04T19:32:12.342Z,33.42
2022-12-04T19:34:41.246Z,33.28
2022-12-04T19:37:09.433Z,34.22
2022-12-04T19:39:38.128Z,28.63
2022-12-04T19:42:07.349Z,31.45
2022-12-04T19:44:51.735Z,32.90
2022-12-04T19:47:21.440Z,37.90
2022-12-04T19:49:50.177Z,30.25
2022-12-04T19:52:18.787Z,35.30
2022-12-04T19:54:47.644Z,42.90
2022-12-04T19:57:16.229Z,34.55
2022-12-04T19:59:46.795Z,38.22
2022-12-04T20:02:16.207Z,40.75
2022-12-04T20:04:46.194Z,36.05
2022-12-04T20:07:14.583Z,36.90
2022-12-04T20:09:48.728Z,32.85
2022-12-04T20:12:19.061Z,33.67
2022-12-04T20:14:47.591Z,33.17
2022-12-04T20:17:16.220Z,34.00
2022-12-04T20:19:45.923Z,33.13
2022-12-04T20:22:14.526Z,32.38
2022-12-04T20:24:43.029Z,35.88
2022-12-04T20:27:11.606Z,38.17
2022-12-04T20:29:40.194Z,32.25
2022-12-04T20:32:08.750Z,33.17
2022-12-04T20:34:43.100Z,29.30
2022-12-04T20:37:13.369Z,40.70
2022-12-04T20:39:41.950Z,32.10
2022-12-04T20:42:10.145Z,31.95
2022-12-04T20:44:38.664Z,37.28
2022-12-04T20:47:07.263Z,27.90
2022-12-04T20:49:35.777Z,30.50
2022-12-04T20:52:05.290Z,31.45
2022-12-04T20:54:41.236Z,35.03
2022-12-04T20:57:10.377Z,31.85
2022-12-04T20:59:39.056Z,33.15
2022-12-04T21:02:07.690Z,32.35
2022-12-04T21:04:38.810Z,34.15
2022-12-04T21:07:07.990Z,30.45
2022-12-04T21:09:37.831Z,32.88
2022-12-04T21:12:27.319Z,37.58
2022-12-04T21:15:13.697Z,32.55
2022-12-04T21:17:42.213Z,28.23
2022-12-04T21:20:11.846Z,27.85
2022-12-04T21:22:40.480Z,25.10
2022-12-04T21:25:10.561Z,34.33
2022-12-04T21:27:38.845Z,31.33
2022-12-04T21:30:09.074Z,35.15
2022-12-04T21:32:37.794Z,25.38
2022-12-04T21:35:06.919Z,30.92
2022-12-04T21:37:35.451Z,32.15
2022-12-04T21:40:04.612Z,31.67
2022-12-04T21:42:34.454Z,32.80
2022-12-04T21:45:05.915Z,31.17
2022-12-04T21:47:34.495Z,28.02
2022-12-04T21:50:02.814Z,34.67
2022-12-04T21:52:31.461Z,26.70
2022-12-04T21:54:59.965Z,24.75
2022-12-04T21:57:29.364Z,27.35
2022-12-04T21:59:59.339Z,29.85
2022-12-04T22:02:28.071Z,31.08
2022-12-04T22:04:56.370Z,28.95
2022-12-04T22:07:24.991Z,30.00
2022-12-04T22:09:53.534Z,26.33
2022-12-04T22:15:12.538Z,39.05
2022-12-04T22:17:41.352Z,33.15
2022-12-04T22:20:10.805Z,31.40
2022-12-04T22:22:39.315Z,30.90
2022-12-04T22:25:08.300Z,28.02
2022-12-04T22:27:37.011Z,27.02
2022-12-04T22:30:07.432Z,28.23
2022-12-04T22:32:37.269Z,34.08
2022-12-04T22:35:06.401Z,30.35
2022-12-04T22:37:35.842Z,31.65
2022-12-04T22:40:08.789Z,28.17
2022-12-04T22:42:37.362Z,22.42
2022-12-04T22:45:06.963Z,30.55
2022-12-04T22:47:36.606Z,31.02
2022-12-04T22:50:06.123Z,29.42
2022-12-04T22:52:34.809Z,31.75
2022-12-04T22:55:03.344Z,38.28
2022-12-04T22:57:31.872Z,42.53
2022-12-04T23:00:00.397Z,25.17
2022-12-04T23:02:28.906Z,32.45
2022-12-04T23:04:58.585Z,30.75
2022-12-04T23:07:27.196Z,31.92
2022-12-04T23:09:56.126Z,35.72
2022-12-04T23:12:25.347Z,28.60
2022-12-04T23:14:53.870Z,28.00
2022-12-04T23:17:23.017Z,32.83
2022-12-04T23:19:51.579Z,25.27
2022-12-04T23:22:21.235Z,32.90
2022-12-04T23:24:49.644Z,30.52
2022-12-04T23:27:18.209Z,28.40
2022-12-04T23:29:54.216Z,26.33
2022-12-04T23:32:22.981Z,30.70
2022-12-04T23:34:52.959Z,28.42
2022-12-04T23:37:22.619Z,32.85
2022-12-04T23:39:51.142Z,30.42
2022-12-04T23:42:19.694Z,25.48
2022-12-04T23:44:48.188Z,32.47
2022-12-04T23:47:16.865Z,41.30
2022-12-04T23:49:45.430Z,31.05
2022-12-04T23:52:14.050Z,36.67
2022-12-04T23:54:43.591Z,30.60
2022-12-04T23:57:12.101Z,30.33
2022-12-04T23:59:40.776Z,32.40
